This is the latest recevied weather packets stored in our database for station/object NM5PB-13. If no packets are shown the sender has not sent any weather packets the latest 1 day(s).
| Time | Temp. | Humidity | Pressure | Rain* | Wind** | Luminosity | Snow |
|---|---|---|---|---|---|---|---|
| 1778052343 | 2.78° C | 77% | 1013 hPa | 0 mm | - | - | - |
| 1778050533 | 2.78° C | 77% | 1013 hPa | 0 mm | - | - | - |
| 1778049625 | 3.33° C | 77% | 1013 hPa | 0 mm | - | - | - |
| 1778046916 | 3.89° C | 74% | 1013 hPa | 0 mm | - | - | - |
| 1778046011 | 4.44° C | 72% | 1013 hPa | 0 mm | - | - | - |
| 1778043303 | 7.22° C | 57% | 1012 hPa | 0 mm | - | - | - |
| 1778042399 | 7.78° C | 54% | 1012 hPa | 0 mm | - | - | - |
| 1778041495 | 8.89° C | 51% | 1012 hPa | 0 mm | - | - | - |
| 1778040592 | 8.89° C | 50% | 1012 hPa | 0 mm | - | - | - |
| 1778039686 | 8.89° C | 51% | 1012 hPa | 0 mm | - | - | - |
| 1778038783 | 8.89° C | 50% | 1012 hPa | 0 mm | - | - | - |
| 1778037879 | 9.44° C | 50% | 1012 hPa | 0 mm | - | - | - |
| 1778036975 | 9.44° C | 50% | 1012 hPa | 0 mm | - | - | - |
| 1778036071 | 9.44° C | 49% | 1011 hPa | 0 mm | - | - | - |
| 1778035166 | 10° C | 48% | 1011 hPa | 0 mm | - | - | - |
| 1778034263 | 10° C | 48% | 1011 hPa | 0 mm | - | - | - |
| 1778033360 | 10.56° C | 47% | 1011 hPa | 0 mm | - | - | - |
| 1778032455 | 11.11° C | 46% | 1011 hPa | 0 mm | - | - | - |
| 1778031552 | 11.11° C | 45% | 1010 hPa | 0 mm | - | - | - |
| 1778030649 | 11.67° C | 44% | 1010 hPa | 0 mm | - | - | - |
| 1778029743 | 12.22° C | 44% | 1010 hPa | 0 mm | - | - | - |
| 1778028838 | 12.78° C | 43% | 1010 hPa | 0 mm | - | - | - |
| 1778027032 | 12.78° C | 42% | 1009 hPa | 0 mm | - | - | - |
| 1778026127 | 13.33° C | 42% | 1009 hPa | 0 mm | - | - | - |
| 1778024319 | 13.89° C | 41% | 1009 hPa | 0 mm | - | - | - |
* Rain latest hour (hover to see other rain measurements)
** Current wind speed in m/s (hover to see current wind gust speed)